Time;durP1;ratioP1;P1;durP2;ratioP2;P2;SDS_P1;SDS_P2;PMS_P1;PMS_P2;Temp;Humidity;BMP_temperature;BMP_pressure;BME280_temperature;BME280_humidity;BME280_pressure;Samples;Min_cycle;Max_cycle;Signal;HPM_P1;HPM_P2
2021/10/01 00:00:55;;;;;;;;;41.00;35.67;;;;;11.26;100.00;100775.00;6286921;20;3581584;-44
2021/10/01 00:03:23;;;;;;;;;39.50;32.00;;;;;11.49;100.00;100776.59;6279283;20;2500326;-46
2021/10/01 00:05:52;;;;;;;;;47.00;36.67;;;;;11.34;100.00;100772.81;6286948;20;3598296;-44
2021/10/01 00:08:21;;;;;;;;;47.00;36.00;;;;;11.34;100.00;100770.13;6287259;20;3590917;-44
2021/10/01 00:10:49;;;;;;;;;42.67;35.67;;;;;11.32;100.00;100765.75;6281568;20;3590858;-44
2021/10/01 00:13:18;;;;;;;;;43.00;37.00;;;;;11.43;100.00;100771.53;6283048;20;2849251;-44
2021/10/01 00:15:46;;;;;;;;;48.33;39.33;;;;;11.31;100.00;100772.09;6284888;20;3592919;-44
2021/10/01 00:18:16;;;;;;;;;41.33;35.00;;;;;11.41;100.00;100781.47;6280406;20;2850294;-44
2021/10/01 00:20:46;;;;;;;;;48.00;37.67;;;;;11.28;100.00;100769.56;6313446;20;2856641;-45
2021/10/01 00:23:15;;;;;;;;;47.33;38.67;;;;;11.24;100.00;100770.63;6317352;20;3590893;-44
2021/10/01 00:25:43;;;;;;;;;48.67;39.00;;;;;11.26;100.00;100768.75;6287574;20;3590966;-44
2021/10/01 00:28:12;;;;;;;;;44.33;36.00;;;;;11.31;100.00;100772.09;6283447;20;3605591;-45
2021/10/01 00:30:41;;;;;;;;;47.00;38.00;;;;;11.41;100.00;100768.03;6287788;20;3601312;-45
2021/10/01 00:33:09;;;;;;;;;49.67;40.00;;;;;11.49;100.00;100765.84;6283413;20;3607594;-44
2021/10/01 00:35:38;;;;;;;;;33.67;31.33;;;;;11.45;100.00;100768.75;6284141;20;3613822;-43
2021/10/01 00:38:08;;;;;;;;;38.33;30.67;;;;;11.35;100.00;100766.50;6279709;20;3611739;-43
2021/10/01 00:40:37;;;;;;;;;35.33;33.00;;;;;11.57;100.00;100762.78;6314931;20;3599209;-45
2021/10/01 00:43:06;;;;;;;;;35.00;30.00;;;;;11.49;100.00;100759.59;6280151;20;2844039;-43
2021/10/01 00:45:35;;;;;;;;;32.33;28.00;;;;;11.49;100.00;100756.91;6283600;20;3579532;-45
2021/10/01 00:48:04;;;;;;;;;28.00;27.00;;;;;11.51;100.00;100761.28;6278517;20;2854398;-43
2021/10/01 00:50:33;;;;;;;;;28.33;25.00;;;;;11.40;100.00;100760.88;6285150;20;3576295;-44
2021/10/01 00:53:03;;;;;;;;;30.00;27.00;;;;;11.46;100.00;100759.75;6280795;20;2842051;-44
2021/10/01 00:55:32;;;;;;;;;24.00;21.50;;;;;11.37;100.00;100750.28;6278923;20;2831611;-44
2021/10/01 00:58:01;;;;;;;;;26.00;22.50;;;;;11.45;100.00;100753.47;6280768;20;2830656;-45
2021/10/01 01:00:29;;;;;;;;;22.00;20.00;;;;;11.49;100.00;100754.22;6280457;20;2851284;-45
2021/10/01 01:03:02;;;;;;;;;22.50;18.50;;;;;11.45;100.00;100752.63;6278118;20;2500276;-46
2021/10/01 01:05:45;;;;;;;;;18.50;17.50;;;;;11.48;100.00;100755.16;6280299;20;2824367;-44
2021/10/01 01:08:22;;;;;;;;;23.00;21.00;;;;;11.55;100.00;100759.28;6278574;20;2846101;-45
2021/10/01 01:11:06;;;;;;;;;20.33;17.33;;;;;11.62;100.00;100750.84;6278186;20;3560678;-44
2021/10/01 01:13:55;;;;;;;;;16.00;12.00;;;;;11.79;100.00;100754.53;6282651;20;3532533;-44
2021/10/01 01:16:34;;;;;;;;;17.50;17.00;;;;;11.75;100.00;100750.25;6311137;20;2831522;-43
2021/10/01 01:19:05;;;;;;;;;18.00;18.00;;;;;11.84;100.00;100749.78;6275543;20;2487902;-45
2021/10/01 01:22:19;;;;;;;;;13.50;13.50;;;;;11.53;100.00;100745.94;6283526;20;2805465;-44
2021/10/01 01:25:08;;;;;;;;;17.00;16.33;;;;;11.50;100.00;100743.38;6280176;20;3548253;-46
2021/10/01 01:27:51;;;;;;;;;18.00;18.00;;;;;11.49;100.00;100747.03;6280321;20;2496106;-44
2021/10/01 01:30:24;;;;;;;;;18.00;16.00;;;;;11.62;100.00;100744.59;6278258;20;3568266;-44
2021/10/01 01:32:58;;;;;;;;;15.67;14.00;;;;;11.54;100.00;100742.28;6279858;20;2831549;-44
2021/10/01 01:35:33;;;;;;;;;14.50;14.00;;;;;11.54;100.00;100738.72;6313741;20;2806517;-44
2021/10/01 01:38:15;;;;;;;;;18.00;14.50;;;;;11.48;100.00;100739.91;6277757;20;2492053;-44
2021/10/01 01:40:55;;;;;;;;;16.00;15.33;;;;;11.45;100.00;100745.41;6278207;20;3530612;-44
2021/10/01 01:43:26;;;;;;;;;18.00;15.00;;;;;11.40;100.00;100744.75;6305905;20;3573239;-45
2021/10/01 01:45:56;;;;;;;;;15.33;13.00;;;;;11.38;100.00;100735.91;6276221;20;3536847;-44
2021/10/01 01:48:25;;;;;;;;;13.00;13.00;;;;;11.28;100.00;100734.59;6279760;20;2494037;-45
2021/10/01 01:50:55;;;;;;;;;19.00;14.00;;;;;11.26;100.00;100737.34;6285848;20;2823305;-43
2021/10/01 01:53:25;;;;;;;;;21.00;17.00;;;;;11.31;100.00;100740.69;6284959;20;2500300;-43
2021/10/01 01:55:54;;;;;;;;;20.00;17.50;;;;;11.52;100.00;100732.56;6281503;20;2494034;-46
2021/10/01 01:58:24;;;;;;;;;15.67;15.67;;;;;11.57;100.00;100736.75;6280126;20;3548174;-43
2021/10/01 02:00:54;;;;;;;;;18.67;16.33;;;;;11.61;100.00;100732.09;6281192;20;3563801;-44
2021/10/01 02:03:24;;;;;;;;;18.00;17.00;;;;;11.60;100.00;100735.72;6284914;20;2831558;-45
2021/10/01 02:05:57;;;;;;;;;19.00;18.50;;;;;11.54;100.00;100733.34;6279752;20;2489881;-45
2021/10/01 02:08:27;;;;;;;;;22.33;18.00;;;;;11.44;100.00;100735.59;6281103;20;3573186;-45
2021/10/01 02:10:57;;;;;;;;;18.00;18.00;;;;;11.54;100.00;100741.44;6280506;20;3550214;-44
2021/10/01 02:13:26;;;;;;;;;19.67;17.33;;;;;11.55;100.00;100738.63;6277312;20;3554411;-45
2021/10/01 02:15:57;;;;;;;;;20.50;16.00;;;;;11.52;100.00;100748.69;6281375;20;2500273;-43
2021/10/01 02:18:29;;;;;;;;;18.00;15.50;;;;;11.53;100.00;100745.94;6279924;20;2816948;-45
2021/10/01 02:20:58;;;;;;;;;19.00;16.67;;;;;11.51;100.00;100747.81;6296242;20;3557547;-44
2021/10/01 02:23:27;;;;;;;;;20.50;19.50;;;;;11.48;100.00;100750.66;6312063;20;2834718;-45
2021/10/01 02:29:27;;;;;;;;;20.50;20.50;;;;;11.43;100.00;100744.63;6282749;20;2831897;-44
2021/10/01 02:32:24;;;;;;;;;23.00;22.00;;;;;11.55;100.00;100748.53;6282130;20;3571165;-43
2021/10/01 02:34:53;;;;;;;;;20.00;20.00;;;;;11.46;100.00;100744.47;6285846;20;2833651;-43
2021/10/01 02:37:22;;;;;;;;;24.50;23.00;;;;;11.52;100.00;100743.31;6281319;20;2845063;-43
2021/10/01 02:39:54;;;;;;;;;25.50;22.00;;;;;11.43;100.00;100740.13;6286175;20;2837775;-43
2021/10/01 02:42:26;;;;;;;;;23.00;18.50;;;;;11.32;100.00;100741.56;6284469;20;2835746;-43
2021/10/01 02:44:56;;;;;;;;;23.00;20.50;;;;;11.39;100.00;100741.19;6284998;20;2839842;-44
2021/10/01 02:47:32;;;;;;;;;29.50;24.50;;;;;11.38;100.00;100738.59;6285274;20;2835755;-43
2021/10/01 02:50:10;;;;;;;;;26.00;24.67;;;;;11.48;100.00;100739.91;6282814;20;2841116;-44
2021/10/01 02:53:14;;;;;;;;;28.00;24.00;;;;;11.35;100.00;100741.44;6311931;20;2841956;-44
2021/10/01 02:56:12;;;;;;;;;23.00;23.00;;;;;11.42;100.00;100743.75;6285717;20;2835694;-46
2021/10/01 02:58:54;;;;;;;;;28.67;25.67;;;;;11.43;100.00;100741.94;6284299;20;3580509;-46
2021/10/01 03:01:28;;;;;;;;;28.33;24.67;;;;;11.36;100.00;100746.72;6279404;20;2846215;-43
2021/10/01 03:04:04;;;;;;;;;27.50;25.00;;;;;11.41;100.00;100743.84;6312386;20;2850275;-44
2021/10/01 03:06:40;;;;;;;;;29.00;25.00;;;;;11.29;100.00;100741.72;6281499;20;2850275;-44
2021/10/01 03:09:10;;;;;;;;;28.67;25.00;;;;;11.50;100.00;100751.44;6314050;20;3575237;-44
2021/10/01 03:11:40;;;;;;;;;28.50;26.50;;;;;11.51;100.00;100747.81;6281603;20;2841906;-43
2021/10/01 03:14:10;;;;;;;;;32.00;25.00;;;;;11.40;100.00;100756.41;6280602;20;2845082;-44
2021/10/01 03:16:39;;;;;;;;;30.50;26.50;;;;;11.29;100.00;100752.47;6311615;20;2843075;-45
2021/10/01 03:19:10;;;;;;;;;30.00;28.33;;;;;11.45;100.00;100749.91;6274869;20;2839008;-43
2021/10/01 03:21:42;;;;;;;;;28.33;26.67;;;;;11.24;100.00;100750.00;6316121;20;3602336;-45
2021/10/01 03:24:11;;;;;;;;;29.00;25.50;;;;;11.26;100.00;100739.19;6281760;20;2837768;-43
2021/10/01 03:26:41;;;;;;;;;29.00;23.67;;;;;11.35;100.00;100746.81;6281503;20;2852450;-43
2021/10/01 03:29:11;;;;;;;;;39.00;25.67;;;;;11.16;100.00;100742.31;6313872;20;3603482;-44
2021/10/01 03:31:41;;;;;;;;;28.00;26.00;;;;;11.32;100.00;100741.56;6283883;20;2845067;-44
2021/10/01 03:34:11;;;;;;;;;29.33;26.00;;;;;11.32;100.00;100741.56;6285125;20;3574346;-45
2021/10/01 03:36:40;;;;;;;;;25.67;23.00;;;;;11.40;100.00;100745.66;6313517;20;3569067;-43
2021/10/01 03:39:09;;;;;;;;;28.00;24.00;;;;;11.34;100.00;100739.69;6279420;20;2852355;-43
2021/10/01 03:41:38;;;;;;;;;27.00;25.50;;;;;11.34;100.00;100735.16;6283267;20;2841916;-45
2021/10/01 03:44:07;;;;;;;;;30.00;28.00;;;;;11.27;100.00;100736.44;6282236;20;2840989;-43
2021/10/01 03:46:36;;;;;;;;;24.00;20.00;;;;;11.16;100.00;100742.31;6285247;20;2827328;-43
2021/10/01 03:49:05;;;;;;;;;25.67;22.33;;;;;11.08;100.00;100733.72;6283209;20;2852432;-44
2021/10/01 03:51:34;;;;;;;;;26.67;24.67;;;;;11.10;100.00;100739.03;6317101;20;3580651;-44
2021/10/01 03:54:03;;;;;;;;;30.33;26.00;;;;;11.24;100.00;100733.84;6317416;20;3593032;-43
2021/10/01 03:56:32;;;;;;;;;26.00;21.50;;;;;11.43;100.00;100750.00;6280555;20;2844010;-43
2021/10/01 03:59:00;;;;;;;;;19.67;18.33;;;;;11.34;100.00;100737.00;6275365;20;3565853;-45
2021/10/01 04:01:29;;;;;;;;;30.00;25.00;;;;;11.29;100.00;100741.72;6277089;20;2838888;-43
2021/10/01 04:03:59;;;;;;;;;29.00;20.67;;;;;11.37;100.00;100736.84;6281056;20;3600228;-44
2021/10/01 04:06:28;;;;;;;;;21.00;19.67;;;;;11.52;100.00;100728.03;6315330;20;3577433;-43
2021/10/01 04:08:56;;;;;;;;;27.00;21.00;;;;;11.53;100.00;100735.19;6281875;20;2837785;-43
2021/10/01 04:11:25;;;;;;;;;21.50;19.50;;;;;11.35;100.00;100736.06;6279817;20;2828395;-43
2021/10/01 04:13:54;;;;;;;;;23.50;20.00;;;;;11.35;100.00;100736.06;6283980;20;2841970;-45
2021/10/01 04:16:22;;;;;;;;;23.50;18.50;;;;;11.32;100.00;100741.56;6280322;20;2481613;-45
2021/10/01 04:18:51;;;;;;;;;29.67;21.00;;;;;11.37;100.00;100739.53;6281880;20;2848583;-46
2021/10/01 04:21:20;;;;;;;;;26.50;20.00;;;;;11.40;100.00;100734.91;6315261;20;2842372;-43
2021/10/01 04:23:48;;;;;;;;;22.00;19.00;;;;;11.32;100.00;100730.81;6282939;20;2829408;-45
2021/10/01 04:26:18;;;;;;;;;26.50;20.50;;;;;11.29;100.00;100736.34;6283404;20;2836789;-48
2021/10/01 04:28:48;;;;;;;;;28.33;22.33;;;;;11.30;100.00;100738.09;6282165;20;3596194;-44
2021/10/01 04:31:16;;;;;;;;;22.50;22.50;;;;;11.49;100.00;100744.31;6311722;20;2483608;-43
2021/10/01 04:33:44;;;;;;;;;25.50;23.00;;;;;11.52;100.00;100737.94;6279722;20;2496627;-44
2021/10/01 04:36:13;;;;;;;;;27.00;26.50;;;;;11.49;100.00;100744.31;6283608;20;2842382;-44
2021/10/01 04:38:43;;;;;;;;;27.00;20.50;;;;;11.46;100.00;100754.38;6281967;20;2846100;-43
2021/10/01 04:41:12;;;;;;;;;21.00;20.00;;;;;11.38;100.00;100743.97;6282945;20;2835681;-45
2021/10/01 04:43:41;;;;;;;;;28.00;23.00;;;;;11.25;100.00;100746.38;6281457;20;2835722;-43
2021/10/01 04:46:10;;;;;;;;;26.00;23.00;;;;;11.26;100.00;100753.50;6283404;20;2846098;-46
2021/10/01 04:48:39;;;;;;;;;26.50;22.00;;;;;11.27;100.00;100751.66;6279574;20;2833576;-44
2021/10/01 04:51:08;;;;;;;;;35.50;26.50;;;;;11.24;100.00;100754.50;6284519;20;2857529;-47
2021/10/01 04:53:37;;;;;;;;;32.00;25.33;;;;;11.35;100.00;100758.44;6285056;20;3583590;-44
2021/10/01 04:56:06;;;;;;;;;26.33;24.67;;;;;11.35;100.00;100768.34;6282114;20;2851290;-44
2021/10/01 04:58:36;;;;;;;;;26.00;26.00;;;;;11.40;100.00;100763.56;6312992;20;3585792;-44
2021/10/01 05:01:04;;;;;;;;;32.00;27.33;;;;;11.43;100.00;100766.16;6282569;20;3573183;-45
2021/10/01 05:03:34;;;;;;;;;34.33;27.33;;;;;11.37;100.00;100767.31;6279625;20;2858713;-44
2021/10/01 05:06:04;;;;;;;;;29.33;26.33;;;;;11.38;100.00;100763.66;6316766;20;3581526;-45
2021/10/01 05:08:32;;;;;;;;;27.50;26.00;;;;;11.59;100.00;100767.16;6277001;20;2834720;-45
2021/10/01 05:11:01;;;;;;;;;30.50;28.00;;;;;11.49;100.00;100768.53;6281328;20;2848172;-43
2021/10/01 05:13:31;;;;;;;;;29.00;28.50;;;;;11.64;100.00;100757.03;6282588;20;2834656;-46
2021/10/01 05:16:03;;;;;;;;;29.00;25.33;;;;;11.40;100.00;100760.88;6281140;20;2853363;-45
2021/10/01 05:18:33;;;;;;;;;29.67;28.00;;;;;11.53;100.00;100772.84;6313281;20;3575241;-43
2021/10/01 05:21:03;;;;;;;;;32.33;29.33;;;;;11.52;100.00;100770.22;6279262;20;2851349;-44
2021/10/01 05:23:32;;;;;;;;;34.33;27.67;;;;;11.54;100.00;100769.19;6314436;20;3589823;-44
2021/10/01 05:26:01;;;;;;;;;39.67;33.00;;;;;11.52;100.00;100764.81;6281024;20;3610635;-43
2021/10/01 05:28:30;;;;;;;;;35.33;31.00;;;;;11.62;100.00;100763.44;6312885;20;3600298;-43
2021/10/01 05:30:59;;;;;;;;;35.00;31.00;;;;;11.53;100.00;100772.84;6284095;20;3619005;-43
2021/10/01 05:33:31;;;;;;;;;35.50;31.50;;;;;11.73;100.00;100762.91;6281416;20;2837839;-43
2021/10/01 05:36:00;;;;;;;;;33.33;30.00;;;;;11.62;100.00;100772.38;6281894;20;3604488;-44
2021/10/01 05:38:30;;;;;;;;;34.33;32.67;;;;;11.68;100.00;100770.34;6313646;20;3605423;-43
2021/10/01 05:41:00;;;;;;;;;31.67;30.67;;;;;11.65;100.00;100774.91;6281676;20;2845120;-43
2021/10/01 05:43:29;;;;;;;;;28.67;26.00;;;;;11.57;100.00;100782.47;6312357;20;3580477;-45
2021/10/01 05:45:59;;;;;;;;;33.00;26.33;;;;;11.48;100.00;100779.34;6279672;20;2846113;-44
2021/10/01 05:48:31;;;;;;;;;38.67;32.00;;;;;11.64;100.00;100785.75;6311075;20;3611698;-44
2021/10/01 05:51:05;;;;;;;;;40.00;27.67;;;;;11.72;100.00;100782.69;6285339;20;3595042;-44
2021/10/01 05:56:13;;;;;;;;;31.67;28.00;;;;;11.74;100.00;100788.84;6311607;20;2854523;-45
2021/10/01 05:58:43;;;;;;;;;34.67;30.00;;;;;11.62;100.00;100783.13;6312427;20;3595069;-43
2021/10/01 06:01:12;;;;;;;;;32.33;28.00;;;;;11.67;100.00;100779.38;6286225;20;3587743;-44
2021/10/01 06:03:41;;;;;;;;;34.00;27.50;;;;;11.76;100.00;100785.16;6281267;20;2847134;-44
2021/10/01 06:06:10;;;;;;;;;33.33;28.67;;;;;11.64;100.00;100783.06;6283828;20;3585804;-43
2021/10/01 06:08:40;;;;;;;;;32.67;30.00;;;;;11.74;100.00;100786.16;6276913;20;2860859;-45
2021/10/01 06:11:09;;;;;;;;;33.33;30.00;;;;;11.70;100.00;100790.84;6316711;20;3603374;-44
2021/10/01 06:13:38;;;;;;;;;34.33;26.00;;;;;11.83;100.00;100783.03;6282277;20;3604429;-44
2021/10/01 06:16:07;;;;;;;;;32.00;32.00;;;;;11.82;100.00;100783.97;6282635;20;2835690;-46
2021/10/01 06:18:36;;;;;;;;;32.00;27.00;;;;;11.80;100.00;100797.50;6279157;20;2848157;-44
2021/10/01 06:21:05;;;;;;;;;31.67;28.67;;;;;11.86;100.00;100785.59;6280567;20;3589855;-43
2021/10/01 06:23:34;;;;;;;;;27.00;26.50;;;;;11.90;100.00;100789.91;6281220;20;2847197;-44
2021/10/01 06:26:06;;;;;;;;;33.00;29.00;;;;;12.15;100.00;100797.63;6277750;20;2847518;-44
2021/10/01 06:28:34;;;;;;;;;34.67;28.67;;;;;11.85;100.00;100794.59;6313102;20;3606535;-45
2021/10/01 06:31:04;;;;;;;;;30.00;25.33;;;;;11.85;100.00;100790.09;6277794;20;2843082;-45
2021/10/01 06:33:35;;;;;;;;;34.33;28.67;;;;;11.71;100.00;100797.94;6311394;20;3604464;-45
2021/10/01 06:36:05;;;;;;;;;32.67;24.00;;;;;11.86;100.00;100791.00;6316158;20;3602430;-44
2021/10/01 06:38:34;;;;;;;;;30.33;26.00;;;;;11.83;100.00;100801.88;6285842;20;2853539;-45
2021/10/01 06:41:04;;;;;;;;;37.75;29.25;;;;;11.83;100.00;100804.56;6317721;20;3622178;-46
2021/10/01 06:43:32;;;;;;;;;37.67;31.00;;;;;11.96;100.00;100803.06;6320589;20;3609595;-45
2021/10/01 06:46:04;;;;;;;;;33.33;30.00;;;;;12.13;100.00;100804.88;6286747;20;3603411;-47
2021/10/01 06:48:58;;;;;;;;;33.00;29.67;;;;;12.02;100.00;100802.72;6286091;20;2854469;-44
2021/10/01 08:20:24;;;;;;;;;25.00;21.00;;;;;12.96;100.00;100833.81;6283145;20;2841928;-43
2021/10/01 08:22:53;;;;;;;;;25.00;25.00;;;;;12.91;100.00;100827.81;6282564;20;2844038;-44
2021/10/01 08:25:21;;;;;;;;;21.50;19.00;;;;;12.75;100.00;100829.56;6283288;20;2841939;-44
2021/10/01 08:27:51;;;;;;;;;21.00;19.00;;;;;13.31;100.00;100824.81;6279826;20;2832627;-43
2021/10/01 08:30:20;;;;;;;;;23.00;22.00;;;;;13.32;100.00;100838.25;6288818;20;3577299;-45
2021/10/01 08:32:49;;;;;;;;;21.00;19.00;;;;;13.26;100.00;100830.47;6281891;20;2839829;-43
2021/10/01 08:35:21;;;;;;;;;18.00;16.50;;;;;13.30;100.00;100826.66;6283761;20;2825284;-44
2021/10/01 08:37:57;;;;;;;;;18.50;17.00;;;;;13.23;100.00;100829.72;6282361;20;2827361;-44
2021/10/01 08:40:26;;;;;;;;;21.00;17.00;;;;;13.64;100.00;100830.19;6285378;20;2828511;-44
2021/10/01 08:42:55;;;;;;;;;23.50;21.00;;;;;13.23;100.00;100829.72;6283487;20;2841105;-43
2021/10/01 08:45:27;;;;;;;;;22.00;22.00;;;;;13.20;100.00;100832.59;6281231;20;2818990;-44
2021/10/01 08:47:58;;;;;;;;;21.00;21.00;;;;;13.11;100.00;100828.56;6295027;20;3581556;-44
2021/10/01 08:50:30;;;;;;;;;23.00;23.00;;;;;13.41;100.00;100827.91;6280635;20;2838923;-44
2021/10/01 08:52:59;;;;;;;;;23.50;23.50;;;;;13.29;100.00;100829.44;6282589;20;2839864;-44
2021/10/01 08:55:29;;;;;;;;;24.00;20.50;;;;;13.55;100.00;100828.00;6283147;20;2837959;-43
2021/10/01 08:57:58;;;;;;;;;20.00;19.00;;;;;13.59;100.00;100819.66;6282007;20;2837757;-44
2021/10/01 09:00:27;;;;;;;;;19.50;17.00;;;;;13.65;100.00;100826.53;6283130;20;2829533;-48
2021/10/01 09:02:55;;;;;;;;;22.50;20.00;;;;;13.42;100.00;100824.22;6283942;20;2833645;-44
2021/10/01 09:05:24;;;;;;;;;17.00;17.00;;;;;13.90;100.00;100825.13;6283360;20;2824214;-46
2021/10/01 09:07:53;;;;;;;;;20.33;19.00;;;;;13.95;100.00;100828.44;6315189;20;3573225;-44
2021/10/01 09:10:21;;;;;;;;;20.00;15.50;;;;;14.86;98.07;100826.69;6281021;20;2825242;-44
2021/10/01 09:12:53;;;;;;;;;21.33;19.33;;;;;14.81;93.36;100820.69;6284760;20;2839841;-44
2021/10/01 09:15:22;;;;;;;;;16.00;16.00;;;;;14.46;94.71;100818.25;6314751;20;3551272;-44
2021/10/01 09:17:51;;;;;;;;;17.00;16.00;;;;;14.62;95.40;100820.94;6310797;20;2487769;-44
2021/10/01 09:20:25;;;;;;;;;17.00;17.00;;;;;14.00;97.87;100823.66;6283384;20;2837777;-44
2021/10/01 09:23:20;;;;;;;;;15.33;14.33;;;;;14.48;97.38;100814.50;6281682;20;3528343;-44
2021/10/01 09:25:48;;;;;;;;;20.50;17.50;;;;;14.71;96.27;100813.13;6281151;20;2485655;-44
2021/10/01 09:28:17;;;;;;;;;17.33;16.00;;;;;15.01;93.84;100808.63;6280193;20;3553386;-45
2021/10/01 09:30:49;;;;;;;;;16.50;16.50;;;;;15.37;94.82;100808.16;6281975;20;2829454;-44
2021/10/01 09:33:21;;;;;;;;;21.00;17.50;;;;;15.83;88.99;100817.91;6279381;20;2475325;-44
2021/10/01 09:35:50;;;;;;;;;15.67;15.67;;;;;16.10;87.40;100807.94;6281213;20;3555425;-44
2021/10/01 09:38:20;;;;;;;;;18.00;16.50;;;;;15.07;89.51;100809.13;6281874;20;2830478;-44
2021/10/01 09:41:15;;;;;;;;;16.00;16.00;;;;;15.36;90.00;100807.31;6280542;20;2823252;-44
2021/10/01 09:43:43;;;;;;;;;18.50;16.00;;;;;14.99;91.44;100808.75;6282745;20;2491947;-44
2021/10/01 09:46:13;;;;;;;;;20.00;20.00;;;;;15.28;90.99;100806.06;6281207;20;2834734;-45
2021/10/01 09:48:42;;;;;;;;;16.33;15.00;;;;;14.78;91.70;100807.38;6279947;20;3547197;-44
2021/10/01 09:51:19;;;;;;;;;14.00;14.00;;;;;15.07;94.12;100803.72;6282627;20;3535642;-44
2021/10/01 09:53:51;;;;;;;;;19.00;17.00;;;;;15.58;91.36;100812.19;6280084;20;2833614;-45
2021/10/01 09:56:31;;;;;;;;;13.33;12.33;;;;;15.89;90.28;100806.69;6281244;20;3512729;-44
2021/10/01 09:59:26;;;;;;;;;14.00;14.00;;;;;15.36;88.68;100795.63;6310582;20;3514802;-44
2021/10/01 10:02:10;;;;;;;;;13.00;13.00;;;;;14.94;88.55;100800.03;6314776;20;2799190;-47
2021/10/01 10:04:55;;;;;;;;;13.00;11.50;;;;;14.73;89.26;100796.81;6315441;20;2804468;-44
2021/10/01 10:07:28;;;;;;;;;13.33;12.33;;;;;15.11;88.60;100798.97;6278142;20;3515865;-44
2021/10/01 10:10:09;;;;;;;;;11.00;11.00;;;;;15.02;84.00;100794.16;6344286;20;2796162;-44
2021/10/01 10:12:42;;;;;;;;;11.67;11.67;;;;;15.07;84.99;100792.91;6286608;20;3522160;-45
2021/10/01 10:15:17;;;;;;;;;12.00;12.00;;;;;15.05;86.77;100789.41;6317772;20;3516910;-44
2021/10/01 10:17:52;;;;;;;;;12.00;12.00;;;;;15.36;85.29;100787.50;6321397;20;2797151;-46
2021/10/01 10:20:21;;;;;;;;;11.67;11.00;;;;;15.15;83.86;100778.91;6286876;20;2794264;-43
2021/10/01 10:22:50;;;;;;;;;12.00;12.00;;;;;15.07;82.20;100790.19;6317521;20;3526346;-44
2021/10/01 10:25:17;;;;;;;;;13.00;11.00;;;;;14.77;83.31;100776.78;6321439;20;2794086;-46
2021/10/01 10:27:46;;;;;;;;;14.00;12.33;;;;;15.31;82.12;100785.06;6285130;20;3532794;-45
2021/10/01 10:30:18;;;;;;;;;12.33;12.33;;;;;15.59;82.86;100777.91;6284732;20;3524744;-44
2021/10/01 10:32:47;;;;;;;;;12.00;12.00;;;;;16.45;78.16;100783.00;6314948;20;2786864;-47
2021/10/01 10:35:17;;;;;;;;;11.00;11.00;;;;;16.36;78.50;100778.22;6319358;20;2492026;-46
2021/10/01 10:37:53;;;;;;;;;13.00;11.00;;;;;16.54;77.72;100774.25;6292309;20;2791978;-47
2021/10/01 10:40:21;;;;;;;;;13.00;13.00;;;;;16.69;77.39;100772.31;6287630;20;3537846;-45
2021/10/01 10:42:52;;;;;;;;;13.00;12.00;;;;;16.56;75.31;100775.03;6289747;20;2798566;-44
2021/10/01 10:45:27;;;;;;;;;11.00;9.00;;;;;16.65;76.29;100773.50;6283005;20;3492015;-44
2021/10/01 10:48:01;;;;;;;;;12.33;12.33;;;;;16.05;78.60;100764.03;6318785;20;2807693;-44
2021/10/01 10:50:50;;;;;;;;;13.00;13.00;;;;;15.56;80.65;100765.44;6320003;20;2812977;-45
2021/10/01 10:53:24;;;;;;;;;11.00;11.00;;;;;16.08;77.13;100762.97;6316884;20;3514850;-44
2021/10/01 10:56:06;;;;;;;;;10.00;10.00;;;;;16.68;75.27;100755.19;6321109;20;2786704;-44
2021/10/01 10:58:43;;;;;;;;;9.40;9.40;;;;;16.79;76.96;100753.59;6339609;20;2754421;-46
2021/10/01 11:01:20;;;;;;;;;16.00;15.00;;;;;16.86;78.46;100753.06;6288278;20;2812790;-44
2021/10/01 11:04:10;;;;;;;;;12.67;11.00;;;;;16.84;76.33;100752.28;6321477;20;2791998;-46
2021/10/01 11:06:39;;;;;;;;;12.00;10.00;;;;;16.70;75.84;100741.53;6313912;20;2790471;-46
2021/10/01 11:09:14;;;;;;;;;12.67;11.00;;;;;17.07;73.71;100747.09;6314138;20;3510936;-46
2021/10/01 11:11:46;;;;;;;;;11.67;11.00;;;;;15.92;74.98;100746.88;6316662;20;3518054;-45
2021/10/01 11:14:25;;;;;;;;;10.67;9.00;;;;;15.73;77.48;100736.41;6323955;20;2761712;-45
2021/10/01 11:16:53;;;;;;;;;10.50;10.50;;;;;15.51;77.48;100737.78;6321077;20;2787917;-49
2021/10/01 11:19:44;;;;;;;;;9.00;9.00;;;;;15.87;80.28;100730.06;6285232;20;2757553;-45
2021/10/01 11:22:38;;;;;;;;;10.00;10.00;;;;;16.54;77.44;100735.44;6320083;20;2783638;-45
2021/10/01 11:25:23;;;;;;;;;14.00;12.67;;;;;16.55;75.74;100729.03;6285236;20;2805611;-46
2021/10/01 11:28:01;;;;;;;;;11.00;10.00;;;;;16.10;75.23;100733.94;6320088;20;2784649;-47
2021/10/01 11:30:37;;;;;;;;;12.00;10.00;;;;;15.90;77.60;100728.00;6290352;20;2791128;-45
2021/10/01 11:33:12;;;;;;;;;12.67;12.67;;;;;16.34;75.17;100725.97;6285557;20;2808625;-44
2021/10/01 11:35:55;;;;;;;;;9.00;9.00;;;;;16.25;76.44;100724.78;6340513;20;2744008;-47
2021/10/01 11:38:32;;;;;;;;;10.67;10.67;;;;;16.48;76.24;100714.16;6314667;20;3508562;-46
2021/10/01 11:41:14;;;;;;;;;11.33;10.00;;;;;15.99;76.14;100711.16;6315125;20;3513867;-46
2021/10/01 11:43:56;;;;;;;;;11.00;11.00;;;;;16.49;74.81;100713.22;6312891;20;2788807;-46
2021/10/01 11:46:43;;;;;;;;;12.50;11.00;;;;;16.51;77.69;100712.13;6315514;20;2789814;-45
2021/10/01 11:49:22;;;;;;;;;11.00;9.50;;;;;15.79;77.79;100715.19;6285693;20;2783802;-46
2021/10/01 11:52:11;;;;;;;;;10.00;10.00;;;;;16.21;75.19;100709.69;6308939;20;2787813;-45
2021/10/01 11:54:59;;;;;;;;;11.67;10.33;;;;;16.40;73.83;100712.88;6283696;20;2790387;-45
2021/10/01 11:57:43;;;;;;;;;11.00;11.00;;;;;16.34;75.24;100710.56;6335604;20;2786869;-44
2021/10/01 12:00:18;;;;;;;;;9.00;9.00;;;;;16.08;77.63;100704.22;6309528;20;2742052;-46
2021/10/01 12:02:52;;;;;;;;;11.33;11.33;;;;;15.97;77.89;100696.84;6314825;20;3513813;-48
2021/10/01 12:05:33;;;;;;;;;10.80;10.80;;;;;15.94;76.10;100699.75;6341864;20;2786709;-47
2021/10/01 12:08:12;;;;;;;;;8.00;8.00;;;;;16.64;74.75;100701.25;6309360;20;2748327;-45
2021/10/01 12:10:54;;;;;;;;;9.40;9.40;;;;;16.07;75.26;100690.81;6339796;20;2758587;-45
2021/10/01 12:13:37;;;;;;;;;9.00;9.00;;;;;15.91;75.40;100685.56;6286388;20;2758588;-47
2021/10/01 12:16:11;;;;;;;;;10.00;10.00;;;;;15.86;75.26;100693.13;6313757;20;3524189;-45
2021/10/01 12:19:04;;;;;;;;;13.00;12.00;;;;;16.64;75.16;100685.88;6316642;20;2788796;-47
2021/10/01 12:21:35;;;;;;;;;10.00;10.00;;;;;16.75;73.23;100681.53;6284004;20;2771118;-45
2021/10/01 12:24:11;;;;;;;;;9.00;8.00;;;;;17.22;72.16;100675.41;6319211;20;2738821;-45
2021/10/01 12:26:48;;;;;;;;;11.67;10.33;;;;;17.50;71.40;100678.78;6281255;20;3515850;-46
2021/10/01 12:29:27;;;;;;;;;11.67;11.67;;;;;16.93;71.04;100673.94;6312924;20;3515881;-46
2021/10/01 12:32:03;;;;;;;;;12.00;10.33;;;;;16.79;70.99;100674.94;6316814;20;2791914;-47
2021/10/01 12:34:42;;;;;;;;;10.00;10.00;;;;;17.59;72.18;100661.81;6311233;20;2796161;-46
2021/10/01 12:37:21;;;;;;;;;8.20;8.20;;;;;17.51;72.46;100661.53;6342022;20;2748281;-45
2021/10/01 12:40:03;;;;;;;;;8.00;8.00;;;;;17.30;71.72;100666.72;6308951;20;2737744;-45
2021/10/01 12:42:37;;;;;;;;;9.33;9.00;;;;;17.38;72.08;100663.41;6313362;20;2758639;-47
2021/10/01 12:45:12;;;;;;;;;9.00;8.40;;;;;17.33;72.55;100658.34;6342239;20;2748210;-47
2021/10/01 12:47:46;;;;;;;;;6.40;6.40;;;;;17.07;70.83;100655.69;6308524;20;2741937;-49
2021/10/01 12:50:21;;;;;;;;;10.00;10.00;;;;;17.44;71.37;100652.97;6339965;20;2779422;-45